createdAt,value
2022-11-30T00:01:54.315Z,39.85
2022-11-30T00:04:21.343Z,44.15
2022-11-30T00:06:48.190Z,48.78
2022-11-30T00:09:15.513Z,46.53
2022-11-30T00:11:42.440Z,45.60
2022-11-30T00:14:09.668Z,44.67
2022-11-30T00:16:36.741Z,40.25
2022-11-30T00:19:06.744Z,44.38
2022-11-30T00:21:33.662Z,44.47
2022-11-30T00:24:00.757Z,46.20
2022-11-30T00:26:27.607Z,42.13
2022-11-30T00:28:54.739Z,41.47
2022-11-30T00:31:22.068Z,44.25
2022-11-30T00:33:51.874Z,38.72
2022-11-30T00:36:22.035Z,39.10
2022-11-30T00:38:50.927Z,41.28
2022-11-30T00:41:19.933Z,39.40
2022-11-30T00:43:47.202Z,35.72
2022-11-30T00:46:14.725Z,43.33
2022-11-30T00:48:42.234Z,35.85
2022-11-30T00:51:11.091Z,39.05
2022-11-30T00:53:39.304Z,40.30
2022-11-30T00:56:07.623Z,35.80
2022-11-30T00:58:34.804Z,36.58
2022-11-30T01:01:02.041Z,40.13
2022-11-30T01:03:28.981Z,42.13
2022-11-30T01:06:01.542Z,35.80
2022-11-30T01:08:28.687Z,39.58
2022-11-30T01:10:57.813Z,33.13
2022-11-30T01:13:24.992Z,36.50
2022-11-30T01:15:57.088Z,39.47
2022-11-30T01:18:41.745Z,37.55
2022-11-30T01:21:13.788Z,36.75
2022-11-30T01:23:41.217Z,34.58
2022-11-30T01:26:08.991Z,32.15
2022-11-30T01:28:36.507Z,35.78
2022-11-30T01:31:09.554Z,48.33
2022-11-30T01:33:39.197Z,35.53
2022-11-30T01:36:17.215Z,36.60
2022-11-30T01:38:51.094Z,42.22
2022-11-30T01:41:25.362Z,34.13
2022-11-30T01:46:37.122Z,36.80
2022-11-30T01:49:09.866Z,39.88
2022-11-30T01:51:49.581Z,35.85
2022-11-30T01:54:37.412Z,38.83
2022-11-30T01:57:31.070Z,39.15
2022-11-30T02:00:01.165Z,37.28
2022-11-30T02:03:11.399Z,38.88
2022-11-30T02:05:41.511Z,36.40
2022-11-30T02:08:11.875Z,37.28
2022-11-30T02:10:49.854Z,37.53
2022-11-30T02:13:22.232Z,39.90
2022-11-30T02:16:21.053Z,36.47
2022-11-30T02:19:39.749Z,32.35
2022-11-30T02:22:49.252Z,38.28
2022-11-30T02:25:34.533Z,42.58
2022-11-30T02:28:57.627Z,41.05
2022-11-30T02:31:35.017Z,37.58
2022-11-30T02:34:06.893Z,40.53
2022-11-30T02:36:33.838Z,38.42
2022-11-30T02:39:01.272Z,37.63
2022-11-30T02:41:38.168Z,43.05
2022-11-30T02:44:07.786Z,42.95
2022-11-30T02:47:01.427Z,46.10
2022-11-30T02:49:36.499Z,40.40
2022-11-30T02:52:05.342Z,44.35
2022-11-30T02:54:33.631Z,45.80
2022-11-30T02:57:03.011Z,46.72
2022-11-30T02:59:30.026Z,47.42
2022-11-30T03:01:57.539Z,42.40
2022-11-30T03:04:24.557Z,46.22
2022-11-30T03:06:51.445Z,44.95
2022-11-30T03:09:18.244Z,42.85
2022-11-30T03:11:45.068Z,45.45
2022-11-30T03:14:12.561Z,40.30
2022-11-30T03:16:39.370Z,41.25
2022-11-30T03:19:06.244Z,42.35
2022-11-30T03:21:33.109Z,40.15
2022-11-30T03:24:00.104Z,39.85
2022-11-30T03:26:27.004Z,39.72
2022-11-30T03:28:53.881Z,40.47
2022-11-30T03:31:20.903Z,41.67
2022-11-30T03:33:47.807Z,42.95
2022-11-30T03:36:14.692Z,41.60
2022-11-30T03:38:41.571Z,42.38
2022-11-30T03:41:14.202Z,41.60
2022-11-30T03:43:41.565Z,38.60
2022-11-30T03:46:08.695Z,38.30
2022-11-30T03:48:38.238Z,39.28
2022-11-30T03:51:05.685Z,46.55
2022-11-30T03:53:32.780Z,42.03
2022-11-30T03:56:04.645Z,39.30
2022-11-30T03:58:32.006Z,40.80
2022-11-30T04:01:04.715Z,44.88
2022-11-30T04:03:31.623Z,46.47
2022-11-30T04:05:59.345Z,45.35
2022-11-30T04:08:27.345Z,42.22
2022-11-30T04:10:55.934Z,48.13
2022-11-30T04:13:23.668Z,49.20
2022-11-30T04:15:52.770Z,47.53
2022-11-30T04:18:22.018Z,47.17
2022-11-30T04:20:53.946Z,50.33
2022-11-30T04:23:22.205Z,48.17
2022-11-30T04:25:49.421Z,50.13
2022-11-30T04:28:17.723Z,53.75
2022-11-30T04:30:45.863Z,54.70
2022-11-30T04:33:15.517Z,55.42
2022-11-30T04:35:57.384Z,49.88
2022-11-30T04:38:25.405Z,53.78
2022-11-30T04:40:52.578Z,52.63
2022-11-30T04:43:20.111Z,54.72
2022-11-30T04:45:47.642Z,48.30
2022-11-30T04:48:16.486Z,49.97
2022-11-30T04:50:43.563Z,50.83
2022-11-30T04:53:11.062Z,51.40
2022-11-30T04:55:39.111Z,51.47
2022-11-30T04:58:06.813Z,52.30
2022-11-30T05:00:34.907Z,46.70
2022-11-30T05:03:02.332Z,56.33
2022-11-30T05:05:29.347Z,53.53
2022-11-30T05:07:58.171Z,48.83
2022-11-30T05:10:26.594Z,59.08
2022-11-30T05:12:53.667Z,65.07
2022-11-30T05:15:20.843Z,57.55
2022-11-30T05:17:47.617Z,61.38
2022-11-30T05:20:14.447Z,61.15
2022-11-30T05:22:41.394Z,59.92
2022-11-30T05:25:09.425Z,64.97
2022-11-30T05:27:37.011Z,61.40
2022-11-30T05:30:05.574Z,62.08
2022-11-30T05:32:32.624Z,61.95
2022-11-30T05:34:59.722Z,62.00
2022-11-30T05:37:26.831Z,60.97
2022-11-30T05:39:54.003Z,64.32
2022-11-30T05:42:21.306Z,64.38
2022-11-30T05:44:57.642Z,59.08
2022-11-30T05:47:24.909Z,64.75
2022-11-30T05:49:51.756Z,60.38
2022-11-30T05:52:18.729Z,65.45
2022-11-30T05:54:45.969Z,58.47
2022-11-30T05:57:15.202Z,55.58
2022-11-30T05:59:42.511Z,58.17
2022-11-30T06:02:09.543Z,59.67
2022-11-30T06:04:36.582Z,59.08
2022-11-30T06:07:04.403Z,53.53
2022-11-30T06:09:31.266Z,60.88
2022-11-30T06:11:58.213Z,58.85
2022-11-30T06:14:25.083Z,57.47
2022-11-30T06:16:52.120Z,53.50
2022-11-30T06:19:19.049Z,52.50
2022-11-30T06:21:45.906Z,51.67
2022-11-30T06:24:12.858Z,57.25
2022-11-30T06:26:39.942Z,52.38
2022-11-30T06:29:06.905Z,58.30
2022-11-30T06:31:34.756Z,61.20
2022-11-30T06:34:01.825Z,54.85
2022-11-30T06:36:34.186Z,56.00
2022-11-30T06:39:03.272Z,62.38
2022-11-30T06:41:30.137Z,67.78
2022-11-30T06:43:57.289Z,63.05
2022-11-30T06:46:24.182Z,64.70
2022-11-30T06:48:51.081Z,62.55
2022-11-30T06:51:18.459Z,64.60
2022-11-30T06:53:46.100Z,63.20
2022-11-30T06:56:13.362Z,61.78
2022-11-30T06:58:40.880Z,74.75
2022-11-30T07:01:11.063Z,72.15
2022-11-30T07:03:38.893Z,72.40
2022-11-30T07:06:11.885Z,78.00
2022-11-30T07:08:39.386Z,74.30
2022-11-30T07:11:07.722Z,73.93
2022-11-30T07:13:34.986Z,74.55
2022-11-30T07:16:07.154Z,77.50
2022-11-30T07:18:35.086Z,76.45
2022-11-30T07:21:04.557Z,71.53
2022-11-30T07:23:55.912Z,79.70
2022-11-30T07:26:24.862Z,84.60
2022-11-30T07:28:58.243Z,82.88
2022-11-30T07:31:31.268Z,76.05
2022-11-30T07:34:04.791Z,72.93
2022-11-30T07:36:31.938Z,75.68
2022-11-30T07:38:58.954Z,83.07
2022-11-30T07:41:26.243Z,84.43
2022-11-30T07:43:53.360Z,82.68
2022-11-30T07:46:20.302Z,81.35
2022-11-30T07:48:47.409Z,91.20
2022-11-30T07:51:20.852Z,82.60
2022-11-30T07:53:48.729Z,85.90
2022-11-30T07:56:19.298Z,77.70
2022-11-30T07:58:48.085Z,80.70
2022-11-30T08:01:19.150Z,75.03
2022-11-30T08:03:46.308Z,75.95
2022-11-30T08:06:20.043Z,72.13
2022-11-30T08:08:49.583Z,74.10
2022-11-30T08:11:21.721Z,76.43
2022-11-30T08:13:48.641Z,78.05
2022-11-30T08:16:21.936Z,77.38
2022-11-30T08:18:49.533Z,59.87
2022-11-30T08:21:26.215Z,79.47
2022-11-30T08:24:13.745Z,77.38
2022-11-30T08:26:49.112Z,77.25
2022-11-30T08:29:31.878Z,83.53
2022-11-30T08:31:58.750Z,85.20
2022-11-30T08:34:26.682Z,79.53
2022-11-30T08:36:53.530Z,84.43
2022-11-30T08:39:20.797Z,78.20
2022-11-30T08:41:47.956Z,71.88
2022-11-30T08:44:20.768Z,82.68
2022-11-30T08:47:08.682Z,83.18
2022-11-30T08:52:22.072Z,85.72
2022-11-30T08:55:23.026Z,85.60
2022-11-30T08:57:59.425Z,81.13
2022-11-30T11:26:50.761Z,80.28
2022-11-30T11:29:35.656Z,88.88
2022-11-30T11:32:26.978Z,91.70
2022-11-30T11:34:54.202Z,83.70
2022-11-30T11:37:33.769Z,85.38
2022-11-30T11:40:17.450Z,92.75
2022-11-30T11:42:51.438Z,87.40
2022-11-30T11:45:27.497Z,86.75
2022-11-30T11:48:03.274Z,80.00
2022-11-30T11:51:05.423Z,85.50
2022-11-30T11:53:53.027Z,92.95
2022-11-30T11:56:26.723Z,88.43
2022-11-30T11:59:01.317Z,80.38
2022-11-30T12:02:14.137Z,84.82
2022-11-30T12:04:59.570Z,80.72
2022-11-30T12:07:53.383Z,83.57
2022-11-30T12:10:52.785Z,84.38
2022-11-30T12:13:23.921Z,82.50
2022-11-30T12:15:58.679Z,82.13
2022-11-30T12:18:57.115Z,87.03
2022-11-30T12:21:48.681Z,76.93
2022-11-30T12:24:49.455Z,72.10
2022-11-30T12:27:56.356Z,72.43
2022-11-30T12:31:14.850Z,64.82
2022-11-30T12:34:05.885Z,67.18
2022-11-30T12:36:51.409Z,62.65
2022-11-30T12:40:05.098Z,61.67
2022-11-30T12:42:51.201Z,56.58
2022-11-30T12:45:42.802Z,59.00
2022-11-30T12:48:24.749Z,57.60
2022-11-30T12:51:32.406Z,54.45
2022-11-30T12:54:46.868Z,54.35
2022-11-30T12:57:36.369Z,53.25
2022-11-30T13:00:17.579Z,50.92
2022-11-30T13:03:19.623Z,50.75
2022-11-30T13:06:37.852Z,46.53
2022-11-30T13:09:17.768Z,44.30
2022-11-30T13:12:07.409Z,44.88
2022-11-30T13:14:47.583Z,50.20
2022-11-30T13:17:22.939Z,48.53
2022-11-30T13:20:08.359Z,54.60
2022-11-30T13:22:59.035Z,55.38
2022-11-30T13:26:08.594Z,60.95
2022-11-30T13:28:46.767Z,66.45
2022-11-30T13:31:46.642Z,74.70
2022-11-30T13:34:32.832Z,69.22
2022-11-30T13:37:27.268Z,74.93
2022-11-30T13:40:11.187Z,71.88
2022-11-30T13:42:52.599Z,80.67
2022-11-30T13:45:54.043Z,73.65
2022-11-30T13:48:38.257Z,82.10
2022-11-30T13:51:10.112Z,83.05
2022-11-30T13:53:39.109Z,81.70
2022-11-30T13:56:19.683Z,85.28
2022-11-30T13:59:23.807Z,72.10
2022-11-30T14:01:52.871Z,79.03
2022-11-30T14:04:39.110Z,71.07
2022-11-30T14:07:37.707Z,68.65
2022-11-30T14:10:35.411Z,72.85
2022-11-30T14:13:07.489Z,76.35
2022-11-30T14:15:43.106Z,76.57
2022-11-30T14:18:10.028Z,72.55
2022-11-30T14:20:53.933Z,73.97
2022-11-30T14:23:41.210Z,58.88
2022-11-30T14:26:13.530Z,75.53
2022-11-30T14:28:50.745Z,70.00
2022-11-30T14:31:24.619Z,71.07
2022-11-30T14:34:26.630Z,73.22
2022-11-30T14:37:45.934Z,73.00
2022-11-30T14:40:21.894Z,65.43
2022-11-30T14:43:21.176Z,64.25
2022-11-30T14:46:10.222Z,69.72
2022-11-30T14:48:43.932Z,67.43
2022-11-30T14:51:11.234Z,69.25
2022-11-30T14:54:47.422Z,66.25
2022-11-30T14:57:38.770Z,67.18
2022-11-30T15:00:06.967Z,77.57
2022-11-30T15:02:38.728Z,71.50
2022-11-30T15:05:08.310Z,67.03
2022-11-30T15:07:38.624Z,64.57
2022-11-30T15:10:09.932Z,61.55
2022-11-30T15:12:39.504Z,55.83
2022-11-30T15:15:20.232Z,62.95
2022-11-30T15:17:57.022Z,52.55
2022-11-30T15:20:28.983Z,61.30
2022-11-30T15:23:00.267Z,51.72
2022-11-30T15:25:40.407Z,51.22
2022-11-30T15:28:09.294Z,53.08
2022-11-30T15:30:44.604Z,54.47
2022-11-30T15:33:22.712Z,49.85
2022-11-30T15:36:18.874Z,52.83
2022-11-30T15:41:23.223Z,44.00
2022-11-30T15:43:54.688Z,42.35
2022-11-30T15:46:46.189Z,44.08
2022-11-30T15:49:31.629Z,48.38
2022-11-30T15:52:04.216Z,44.03
2022-11-30T15:54:55.356Z,52.80
2022-11-30T15:57:38.792Z,52.85
2022-11-30T16:00:33.330Z,47.58
2022-11-30T16:03:14.092Z,50.38
2022-11-30T16:05:56.819Z,52.58
2022-11-30T16:08:31.992Z,51.15
2022-11-30T16:11:01.990Z,52.95
2022-11-30T16:16:00.900Z,46.88
2022-11-30T16:18:30.988Z,58.90
2022-11-30T16:21:00.794Z,52.33
2022-11-30T16:23:33.837Z,57.60
2022-11-30T16:26:00.960Z,67.28
2022-11-30T16:28:27.861Z,72.18
2022-11-30T16:30:59.977Z,70.45
2022-11-30T16:33:27.773Z,76.43
2022-11-30T16:36:01.292Z,84.18
2022-11-30T16:38:29.020Z,62.72
2022-11-30T16:40:56.347Z,90.22
2022-11-30T16:43:26.087Z,87.80
2022-11-30T16:45:52.977Z,93.65
2022-11-30T16:48:20.051Z,94.95
2022-11-30T16:50:47.108Z,93.05
2022-11-30T16:53:17.724Z,92.97
2022-11-30T16:55:44.548Z,96.90
2022-11-30T16:58:11.374Z,93.28
2022-11-30T17:00:40.141Z,91.25
2022-11-30T17:03:26.841Z,88.97
2022-11-30T17:05:53.611Z,86.53
2022-11-30T17:08:20.460Z,84.32
2022-11-30T17:10:52.653Z,86.40
2022-11-30T17:13:19.924Z,92.50
2022-11-30T17:15:47.303Z,88.15
2022-11-30T17:18:14.174Z,84.90
2022-11-30T17:20:51.902Z,88.15
2022-11-30T17:23:19.035Z,90.22
2022-11-30T17:25:47.311Z,79.25
2022-11-30T17:28:14.262Z,87.35
2022-11-30T17:30:54.164Z,87.38
2022-11-30T17:33:21.212Z,84.50
2022-11-30T17:35:48.159Z,81.70
2022-11-30T17:38:17.360Z,86.40
2022-11-30T17:40:45.294Z,86.50
2022-11-30T17:43:12.324Z,84.03
2022-11-30T17:45:40.445Z,77.65
2022-11-30T17:48:07.664Z,85.75
2022-11-30T17:50:34.871Z,80.60
2022-11-30T17:53:19.407Z,87.57
2022-11-30T17:55:46.877Z,83.85
2022-11-30T17:58:15.090Z,73.18
2022-11-30T18:00:42.048Z,79.47
2022-11-30T18:03:24.017Z,77.43
2022-11-30T18:05:51.221Z,73.18
2022-11-30T18:08:18.698Z,76.75
2022-11-30T18:14:08.217Z,77.30
2022-11-30T18:16:37.056Z,85.70
2022-11-30T18:19:12.309Z,80.72
2022-11-30T18:21:41.180Z,87.43
2022-11-30T18:24:10.193Z,87.38
2022-11-30T18:26:37.006Z,78.30
2022-11-30T18:29:03.962Z,93.53
2022-11-30T18:31:31.505Z,96.28
2022-11-30T18:34:02.019Z,94.57
2022-11-30T18:36:29.500Z,101.47
2022-11-30T18:38:56.788Z,94.85
2022-11-30T18:41:25.982Z,94.20
2022-11-30T18:43:53.724Z,81.30
2022-11-30T18:46:21.284Z,79.97
2022-11-30T18:48:53.024Z,79.68
2022-11-30T18:51:24.339Z,74.50
2022-11-30T18:54:01.352Z,79.45
2022-11-30T18:56:31.860Z,84.65
2022-11-30T18:59:02.865Z,70.47
2022-11-30T19:01:31.434Z,77.65
2022-11-30T19:04:05.226Z,79.32
2022-11-30T19:06:33.151Z,79.05
2022-11-30T19:09:02.765Z,77.95
2022-11-30T19:11:29.621Z,74.85
2022-11-30T19:13:58.514Z,78.50
2022-11-30T19:16:27.781Z,80.85
2022-11-30T19:18:56.064Z,76.55
2022-11-30T19:21:23.243Z,82.68
2022-11-30T19:23:50.520Z,81.70
2022-11-30T19:26:17.364Z,80.30
2022-11-30T19:28:45.128Z,81.07
2022-11-30T19:31:14.648Z,79.97
2022-11-30T19:33:44.968Z,79.38
2022-11-30T19:36:22.422Z,79.15
2022-11-30T19:38:51.351Z,87.60
2022-11-30T19:41:19.997Z,78.90
2022-11-30T19:43:53.927Z,85.10
2022-11-30T19:46:22.825Z,78.57
2022-11-30T19:48:55.382Z,77.38
2022-11-30T19:51:22.186Z,80.10
2022-11-30T19:53:55.309Z,83.70
2022-11-30T19:56:23.357Z,77.95
2022-11-30T19:58:50.602Z,76.88
2022-11-30T20:01:24.130Z,75.95
2022-11-30T20:03:53.513Z,74.05
2022-11-30T20:06:24.641Z,77.50
2022-11-30T20:08:51.654Z,79.22
2022-11-30T20:11:18.505Z,75.63
2022-11-30T20:13:45.947Z,78.50
2022-11-30T20:16:18.647Z,75.07
2022-11-30T20:18:51.908Z,77.20
2022-11-30T20:21:23.398Z,53.50
2022-11-30T20:23:51.280Z,78.28
2022-11-30T20:26:29.642Z,76.95
2022-11-30T20:28:57.684Z,68.80
2022-11-30T20:31:26.081Z,76.28
2022-11-30T20:33:53.033Z,68.22
2022-11-30T20:36:21.103Z,70.72
2022-11-30T20:38:48.595Z,68.93
2022-11-30T20:41:19.538Z,67.25
2022-11-30T20:43:47.377Z,71.90
2022-11-30T20:46:19.859Z,71.78
2022-11-30T20:48:47.330Z,64.43
2022-11-30T20:51:30.182Z,66.32
2022-11-30T20:54:04.124Z,64.97
2022-11-30T20:56:31.480Z,66.07
2022-11-30T20:59:02.434Z,63.42
2022-11-30T21:01:29.391Z,66.38
2022-11-30T21:03:56.383Z,66.93
2022-11-30T21:06:23.220Z,58.70
2022-11-30T21:08:50.058Z,62.80
2022-11-30T21:11:20.057Z,58.78
2022-11-30T21:13:49.756Z,66.13
2022-11-30T21:16:25.595Z,58.22
2022-11-30T21:18:54.880Z,62.60
2022-11-30T21:21:24.273Z,67.72
2022-11-30T21:23:51.957Z,61.63
2022-11-30T21:26:22.272Z,56.60
2022-11-30T21:28:53.077Z,63.33
2022-11-30T21:31:21.614Z,58.78
2022-11-30T21:33:53.176Z,61.63
2022-11-30T21:36:22.098Z,57.53
2022-11-30T21:39:04.388Z,57.47
2022-11-30T21:41:33.240Z,58.72
2022-11-30T21:44:00.226Z,59.83
2022-11-30T21:46:27.379Z,60.50
2022-11-30T21:48:54.279Z,58.80
2022-11-30T21:51:25.297Z,60.15
2022-11-30T21:53:55.740Z,56.38
2022-11-30T21:56:26.657Z,59.40
2022-11-30T21:58:53.514Z,63.75
2022-11-30T22:01:33.437Z,52.50
2022-11-30T22:04:01.903Z,61.70
2022-11-30T22:06:30.984Z,59.50
2022-11-30T22:09:07.673Z,59.15
2022-11-30T22:11:41.349Z,65.70
2022-11-30T22:14:13.192Z,60.65
2022-11-30T22:16:40.100Z,61.13
2022-11-30T22:19:07.185Z,60.08
2022-11-30T22:21:34.944Z,57.80
2022-11-30T22:24:05.367Z,65.47
2022-11-30T22:26:41.341Z,60.88
2022-11-30T22:29:17.043Z,61.78
2022-11-30T22:31:46.604Z,66.88
2022-11-30T22:34:13.861Z,62.03
2022-11-30T22:36:42.696Z,66.20
2022-11-30T22:39:19.242Z,66.57
2022-11-30T22:41:53.101Z,62.05
2022-11-30T22:44:22.616Z,55.88
2022-11-30T22:46:49.488Z,62.55
2022-11-30T22:49:21.296Z,59.38
2022-11-30T22:51:49.506Z,63.03
2022-11-30T22:54:16.575Z,61.92
2022-11-30T22:56:44.108Z,60.45
2022-11-30T22:59:13.338Z,58.47
2022-11-30T23:01:45.503Z,69.57
2022-11-30T23:04:16.139Z,62.45
2022-11-30T23:06:43.709Z,56.55
2022-11-30T23:09:17.769Z,60.53
2022-11-30T23:11:45.121Z,65.18
2022-11-30T23:14:12.433Z,60.83
2022-11-30T23:16:40.265Z,64.00
2022-11-30T23:19:07.687Z,63.22
2022-11-30T23:21:41.512Z,60.83
2022-11-30T23:26:48.158Z,62.42
2022-11-30T23:29:16.873Z,65.07
2022-11-30T23:31:45.268Z,64.22
2022-11-30T23:34:21.268Z,60.00
2022-11-30T23:36:49.328Z,63.80
2022-11-30T23:39:18.413Z,66.72
2022-11-30T23:41:45.674Z,68.78
2022-11-30T23:44:13.034Z,62.67
2022-11-30T23:46:40.498Z,68.78
2022-11-30T23:49:08.004Z,65.88
2022-11-30T23:51:35.046Z,62.15
2022-11-30T23:54:01.827Z,70.40
2022-11-30T23:56:28.610Z,65.20
2022-11-30T23:58:55.396Z,68.05
